createdAt,value
2019-04-01T00:01:56.631Z,2.43
2019-04-01T00:04:26.302Z,3.07
2019-04-01T00:06:56.033Z,2.40
2019-04-01T00:09:25.692Z,2.03
2019-04-01T00:11:55.329Z,1.77
2019-04-01T00:14:24.963Z,1.87
2019-04-01T00:16:54.673Z,3.13
2019-04-01T00:19:24.324Z,4.47
2019-04-01T00:21:53.995Z,1.97
2019-04-01T00:24:23.647Z,2.87
2019-04-01T00:26:53.304Z,2.17
2019-04-01T00:29:23.167Z,2.77
2019-04-01T00:31:52.859Z,2.27
2019-04-01T00:34:22.511Z,2.33
2019-04-01T00:36:52.330Z,2.00
2019-04-01T00:39:21.961Z,2.23
2019-04-01T00:42:06.513Z,2.20
2019-04-01T00:44:36.308Z,2.63
2019-04-01T00:47:06.119Z,1.83
2019-04-01T00:49:35.935Z,2.13
2019-04-01T00:52:05.575Z,2.47
2019-04-01T00:54:35.316Z,2.13
2019-04-01T00:57:05.009Z,2.33
2019-04-01T00:59:34.636Z,2.77
2019-04-01T01:02:04.359Z,2.70
2019-04-01T01:04:34.008Z,2.60
2019-04-01T01:07:03.716Z,2.03
2019-04-01T01:09:33.373Z,2.00
2019-04-01T01:12:03.037Z,2.53
2019-04-01T01:14:32.689Z,2.27
2019-04-01T01:17:02.356Z,2.00
2019-04-01T01:19:32.010Z,2.80
2019-04-01T01:22:01.652Z,2.10
2019-04-01T01:24:32.556Z,4.60
2019-04-01T01:27:02.554Z,2.53
2019-04-01T01:29:32.238Z,2.20
2019-04-01T01:32:01.946Z,2.90
2019-04-01T01:34:31.619Z,2.13
2019-04-01T01:37:02.301Z,2.47
2019-04-01T01:39:32.041Z,3.73
2019-04-01T01:42:01.686Z,2.37
2019-04-01T01:44:31.312Z,2.73
2019-04-01T01:47:01.024Z,2.30
2019-04-01T01:49:30.679Z,2.40
2019-04-01T01:52:00.317Z,3.13
2019-04-01T01:54:29.960Z,3.10
2019-04-01T01:56:59.735Z,2.63
2019-04-01T01:59:29.450Z,2.33
2019-04-01T02:01:59.104Z,2.57
2019-04-01T02:04:28.788Z,2.73
2019-04-01T02:06:58.649Z,2.57
2019-04-01T02:09:28.284Z,2.40
2019-04-01T02:11:57.965Z,2.30
2019-04-01T02:14:27.604Z,2.63
2019-04-01T02:16:57.341Z,2.50
2019-04-01T02:19:26.994Z,1.87
2019-04-01T02:21:56.635Z,3.63
2019-04-01T02:24:26.309Z,3.73
2019-04-01T02:26:56.021Z,2.77
2019-04-01T02:29:25.729Z,2.77
2019-04-01T02:31:55.441Z,2.17
2019-04-01T02:34:25.236Z,2.30
2019-04-01T02:36:54.915Z,2.23
2019-04-01T02:39:24.572Z,2.87
2019-04-01T02:41:54.214Z,2.77
2019-04-01T02:44:23.887Z,2.27
2019-04-01T02:46:53.577Z,2.50
2019-04-01T02:49:23.234Z,2.70
2019-04-01T02:51:52.908Z,2.33
2019-04-01T02:54:22.563Z,2.50
2019-04-01T02:56:52.285Z,2.77
2019-04-01T02:59:21.943Z,2.50
2019-04-01T03:01:51.585Z,2.73
2019-04-01T03:04:21.222Z,2.87
2019-04-01T03:06:50.971Z,2.20
2019-04-01T03:09:20.610Z,2.87
2019-04-01T03:11:50.253Z,2.30
2019-04-01T03:14:19.930Z,2.73
2019-04-01T03:16:49.663Z,2.27
2019-04-01T03:19:19.316Z,2.00
2019-04-01T03:21:49.093Z,2.23
2019-04-01T03:24:18.826Z,2.57
2019-04-01T03:26:48.605Z,2.77
2019-04-01T03:29:18.347Z,2.23
2019-04-01T03:31:48.025Z,3.73
2019-04-01T03:34:17.679Z,2.20
2019-04-01T03:36:47.348Z,2.23
2019-04-01T03:39:16.996Z,2.63
2019-04-01T03:41:46.636Z,3.00
2019-04-01T03:44:16.323Z,2.83
2019-04-01T03:46:45.994Z,2.87
2019-04-01T03:49:15.638Z,2.30
2019-04-01T03:51:45.270Z,2.30
2019-04-01T03:54:14.903Z,2.23
2019-04-01T03:56:44.624Z,2.70
2019-04-01T03:59:14.299Z,2.17
2019-04-01T04:01:45.080Z,2.87
2019-04-01T04:04:14.740Z,2.20
2019-04-01T04:06:44.524Z,2.20
2019-04-01T04:09:14.172Z,2.40
2019-04-01T04:11:43.804Z,2.97
2019-04-01T04:14:13.507Z,3.47
2019-04-01T04:16:43.229Z,2.77
2019-04-01T04:19:12.870Z,3.30
2019-04-01T04:21:42.511Z,3.97
2019-04-01T04:24:12.172Z,3.53
2019-04-01T04:26:41.871Z,4.80
2019-04-01T04:29:11.537Z,6.70
2019-04-01T04:31:41.726Z,10.07
2019-04-01T04:34:12.234Z,6.30
2019-04-01T04:36:41.926Z,9.13
2019-04-01T04:39:11.576Z,6.80
2019-04-01T04:41:41.236Z,8.77
2019-04-01T04:44:10.871Z,6.37
2019-04-01T04:46:40.647Z,17.07
2019-04-01T04:49:10.348Z,11.03
2019-04-01T04:51:40.017Z,9.90
2019-04-01T04:54:09.660Z,42.07
2019-04-01T04:56:39.404Z,42.93
2019-04-01T04:59:09.083Z,34.40
2019-04-01T05:01:38.787Z,40.00
2019-04-01T05:04:08.443Z,32.57
2019-04-01T05:06:38.209Z,24.70
2019-04-01T05:09:07.966Z,22.37
2019-04-01T05:11:37.633Z,20.97
2019-04-01T05:14:07.282Z,18.00
2019-04-01T05:16:37.016Z,20.00
2019-04-01T05:19:06.705Z,16.23
2019-04-01T05:21:36.693Z,15.33
2019-04-01T05:24:06.389Z,13.77
2019-04-01T05:26:36.125Z,11.50
2019-04-01T05:29:05.772Z,13.33
2019-04-01T05:31:36.099Z,13.47
2019-04-01T05:34:05.907Z,18.13
2019-04-01T05:36:35.601Z,12.57
2019-04-01T05:39:07.135Z,14.77
2019-04-01T05:41:36.816Z,18.03
2019-04-01T05:44:06.540Z,12.57
2019-04-01T05:46:36.277Z,10.07
2019-04-01T05:49:05.945Z,13.93
2019-04-01T05:51:35.618Z,12.67
2019-04-01T05:54:05.328Z,11.37
2019-04-01T05:56:35.039Z,14.47
2019-04-01T05:59:04.684Z,11.30
2019-04-01T06:01:40.619Z,10.33
2019-04-01T06:04:10.419Z,16.53
2019-04-01T06:06:40.080Z,14.10
2019-04-01T06:09:10.200Z,7.07
2019-04-01T06:11:42.291Z,7.60
2019-04-01T06:14:11.951Z,6.33
2019-04-01T06:16:41.766Z,6.37
2019-04-01T06:19:11.474Z,4.77
2019-04-01T06:21:41.156Z,7.50
2019-04-01T06:24:10.793Z,7.33
2019-04-01T06:26:40.525Z,7.67
2019-04-01T06:29:10.177Z,8.13
2019-04-01T06:31:40.687Z,6.60
2019-04-01T06:34:10.496Z,8.97
2019-04-01T06:36:40.227Z,7.73
2019-04-01T06:39:29.359Z,8.00
2019-04-01T06:41:59.188Z,6.07
2019-04-01T06:44:28.919Z,5.33
2019-04-01T06:46:58.628Z,4.37
2019-04-01T06:49:28.269Z,6.37
2019-04-01T06:51:57.903Z,4.80
2019-04-01T06:54:27.552Z,4.93
2019-04-01T06:56:57.264Z,5.00
2019-04-01T06:59:26.910Z,5.03
2019-04-01T07:01:56.583Z,5.33
2019-04-01T07:04:26.290Z,5.57
2019-04-01T07:06:56.044Z,3.43
2019-04-01T07:09:25.689Z,4.90
2019-04-01T07:11:55.348Z,5.53
2019-04-01T07:14:25.028Z,5.77
2019-04-01T07:16:54.718Z,4.90
2019-04-01T07:19:24.423Z,6.70
2019-04-01T07:21:54.538Z,5.87
2019-04-01T07:24:24.311Z,6.27
2019-04-01T07:26:54.069Z,5.40
2019-04-01T07:29:23.696Z,6.90
2019-04-01T07:31:53.339Z,6.10
2019-04-01T07:34:23.004Z,4.53
2019-04-01T07:36:52.753Z,6.43
2019-04-01T07:39:23.798Z,5.33
2019-04-01T07:41:53.508Z,4.60
2019-04-01T07:44:23.287Z,6.30
2019-04-01T07:46:52.953Z,6.23
2019-04-01T07:49:22.627Z,7.43
2019-04-01T07:51:52.399Z,4.63
2019-04-01T07:54:22.119Z,6.27
2019-04-01T07:56:51.837Z,4.60
2019-04-01T07:59:21.496Z,5.00
2019-04-01T08:01:52.838Z,5.47
2019-04-01T08:04:22.463Z,4.67
2019-04-01T08:06:52.364Z,4.80
2019-04-01T08:09:22.026Z,4.90
2019-04-01T08:11:51.668Z,5.57
2019-04-01T08:14:21.452Z,5.37
2019-04-01T08:16:51.259Z,5.27
2019-04-01T08:19:20.900Z,5.83
2019-04-01T08:21:52.334Z,5.27
2019-04-01T08:24:21.935Z,6.90
2019-04-01T08:26:51.735Z,4.17
2019-04-01T08:29:29.933Z,4.90
2019-04-01T08:31:52.813Z,5.80
2019-04-01T08:34:22.842Z,3.97
2019-04-01T08:36:52.623Z,4.17
2019-04-01T08:39:22.411Z,5.50
2019-04-01T08:41:52.193Z,4.87
2019-04-01T08:44:22.040Z,4.87
2019-04-01T08:46:51.756Z,4.60
2019-04-01T08:49:21.456Z,4.93
2019-04-01T08:51:51.223Z,5.00
2019-04-01T08:54:20.922Z,4.97
2019-04-01T08:56:50.624Z,4.23
2019-04-01T08:59:20.424Z,3.43
2019-04-01T09:01:50.186Z,4.70
2019-04-01T09:04:19.907Z,3.47
2019-04-01T09:06:49.662Z,4.97
2019-04-01T09:09:19.328Z,4.43
2019-04-01T09:11:49.026Z,4.97
2019-04-01T09:14:18.804Z,4.50
2019-04-01T09:16:48.639Z,5.13
2019-04-01T09:19:18.311Z,6.07
2019-04-01T09:21:47.963Z,3.50
2019-04-01T09:24:17.680Z,3.53
2019-04-01T09:26:47.467Z,4.00
2019-04-01T09:29:17.151Z,4.83
2019-04-01T09:31:46.857Z,4.67
2019-04-01T09:34:16.600Z,5.50
2019-04-01T09:36:46.311Z,4.57
2019-04-01T09:39:15.951Z,5.07
2019-04-01T09:41:45.693Z,4.90
2019-04-01T09:44:15.360Z,3.27
2019-04-01T09:46:48.571Z,4.20
2019-04-01T09:49:16.404Z,5.10
2019-04-01T09:51:48.978Z,4.47
2019-04-01T09:54:17.387Z,4.73
2019-04-01T09:56:47.087Z,4.80
2019-04-01T09:59:16.772Z,3.60
2019-04-01T10:01:46.400Z,3.77
2019-04-01T10:04:16.057Z,4.53
2019-04-01T10:06:45.724Z,4.93
2019-04-01T10:09:15.381Z,3.67
2019-04-01T10:11:45.026Z,3.97
2019-04-01T10:14:14.733Z,4.07
2019-04-01T10:16:44.458Z,4.47
2019-04-01T10:19:14.118Z,4.53
2019-04-01T10:21:45.437Z,3.73
2019-04-01T10:24:15.274Z,4.40
2019-04-01T10:26:44.938Z,3.97
2019-04-01T10:29:14.591Z,5.10
2019-04-01T10:31:44.241Z,3.03
2019-04-01T10:34:13.920Z,4.73
2019-04-01T10:36:43.801Z,3.70
2019-04-01T10:39:13.477Z,3.10
2019-04-01T10:41:44.140Z,3.50
2019-04-01T10:44:13.880Z,3.23
2019-04-01T10:46:43.843Z,3.73
2019-04-01T10:49:13.705Z,4.27
2019-04-01T10:51:43.479Z,3.80
2019-04-01T10:54:13.360Z,3.17
2019-04-01T10:56:43.138Z,3.10
2019-04-01T10:59:12.849Z,3.13
2019-04-01T11:01:42.573Z,4.13
2019-04-01T11:04:12.267Z,3.67
2019-04-01T11:06:42.140Z,3.50
2019-04-01T11:09:12.082Z,2.90
2019-04-01T11:11:41.818Z,3.10
2019-04-01T11:14:11.615Z,2.93
2019-04-01T11:16:41.342Z,3.87
2019-04-01T11:19:11.099Z,2.80
2019-04-01T11:21:40.870Z,3.20
2019-04-01T11:24:10.567Z,3.50
2019-04-01T11:26:40.368Z,3.40
2019-04-01T11:29:10.112Z,3.27
2019-04-01T11:31:39.892Z,3.47
2019-04-01T11:34:10.405Z,3.70
2019-04-01T11:36:40.440Z,3.20
2019-04-01T11:39:10.613Z,3.30
2019-04-01T11:41:40.817Z,3.30
2019-04-01T11:44:11.355Z,3.00
2019-04-01T11:46:41.341Z,4.07
2019-04-01T11:49:11.213Z,4.03
2019-04-01T11:51:40.965Z,3.07
2019-04-01T11:54:10.699Z,3.47
2019-04-01T11:56:41.302Z,2.73
2019-04-01T11:59:11.200Z,2.80
2019-04-01T12:01:41.047Z,4.40
2019-04-01T12:04:10.649Z,2.87
2019-04-01T12:06:40.514Z,3.20
2019-04-01T12:09:10.197Z,3.67
2019-04-01T12:11:39.920Z,3.43
2019-04-01T12:14:09.590Z,3.90
2019-04-01T12:16:39.256Z,3.33
2019-04-01T12:19:28.105Z,3.30
2019-04-01T12:21:57.925Z,2.87
2019-04-01T12:24:27.637Z,3.13
2019-04-01T12:26:57.415Z,3.00
2019-04-01T12:29:27.120Z,3.13
2019-04-01T12:31:59.528Z,2.93
2019-04-01T12:34:28.166Z,2.50
2019-04-01T12:36:57.992Z,2.40
2019-04-01T12:39:27.734Z,2.33
2019-04-01T12:41:57.424Z,3.10
2019-04-01T12:44:27.124Z,3.50
2019-04-01T12:46:57.848Z,3.90
2019-04-01T12:49:27.616Z,2.87
2019-04-01T12:51:58.423Z,3.00
2019-04-01T12:54:28.315Z,2.60
2019-04-01T12:56:58.111Z,2.30
2019-04-01T12:59:27.801Z,2.50
2019-04-01T13:01:57.464Z,3.17
2019-04-01T13:04:27.180Z,2.63
2019-04-01T13:06:57.076Z,2.53
2019-04-01T13:09:26.893Z,2.60
2019-04-01T13:11:56.618Z,3.50
2019-04-01T13:14:26.308Z,2.27
2019-04-01T13:16:56.175Z,2.50
2019-04-01T13:19:26.223Z,2.40
2019-04-01T13:21:56.033Z,3.13
2019-04-01T13:24:25.811Z,2.97
2019-04-01T13:26:55.540Z,2.80
2019-04-01T13:29:25.256Z,2.43
2019-04-01T13:31:54.942Z,2.20
2019-04-01T13:34:24.633Z,2.33
2019-04-01T13:36:54.499Z,2.73
2019-04-01T13:39:24.293Z,2.57
2019-04-01T13:41:56.192Z,2.20
2019-04-01T13:44:36.079Z,2.43
2019-04-01T13:46:56.858Z,2.83
2019-04-01T13:49:26.480Z,2.73
2019-04-01T13:51:56.192Z,2.37
2019-04-01T13:54:26.399Z,2.57
2019-04-01T13:56:56.334Z,2.17
2019-04-01T13:59:26.323Z,2.97
2019-04-01T14:01:57.124Z,2.13
2019-04-01T14:04:27.499Z,2.30
2019-04-01T14:06:57.801Z,2.47
2019-04-01T14:09:30.717Z,2.87
2019-04-01T14:11:59.127Z,2.67
2019-04-01T14:14:28.834Z,3.07
2019-04-01T14:16:58.598Z,2.20
2019-04-01T14:19:28.273Z,2.00
2019-04-01T14:21:58.125Z,2.07
2019-04-01T14:24:28.192Z,2.73
2019-04-01T14:26:57.899Z,2.47
2019-04-01T14:29:27.641Z,2.93
2019-04-01T14:31:57.419Z,2.10
2019-04-01T14:34:27.085Z,2.13
2019-04-01T14:36:56.857Z,2.17
2019-04-01T14:39:26.602Z,1.93
2019-04-01T14:41:56.314Z,2.27
2019-04-01T14:44:25.983Z,2.37
2019-04-01T14:46:55.711Z,3.07
2019-04-01T14:49:25.395Z,3.40
2019-04-01T14:51:55.101Z,1.97
2019-04-01T14:54:24.810Z,1.90
2019-04-01T14:56:54.536Z,2.40
2019-04-01T14:59:24.232Z,2.40
2019-04-01T15:01:53.938Z,2.50
2019-04-01T15:04:23.585Z,2.00
2019-04-01T15:06:53.363Z,2.07
2019-04-01T15:09:23.580Z,2.30
2019-04-01T15:11:53.456Z,3.23
2019-04-01T15:14:23.222Z,2.17
2019-04-01T15:16:53.033Z,2.00
2019-04-01T15:19:22.737Z,2.60
2019-04-01T15:21:52.487Z,1.83
2019-04-01T15:24:22.197Z,2.10
2019-04-01T15:26:52.022Z,2.10
2019-04-01T15:29:21.851Z,2.03
2019-04-01T15:31:51.928Z,2.40
2019-04-01T15:34:21.645Z,3.03
2019-04-01T15:36:51.464Z,2.30
2019-04-01T15:39:21.193Z,2.37
2019-04-01T15:41:50.968Z,3.53
2019-04-01T15:44:20.660Z,2.93
2019-04-01T15:46:50.494Z,4.30
2019-04-01T15:49:20.207Z,5.90
2019-04-01T15:51:49.959Z,5.07
2019-04-01T15:54:19.697Z,4.93
2019-04-01T15:56:49.424Z,8.50
2019-04-01T15:59:19.156Z,6.03
2019-04-01T16:01:48.914Z,7.77
2019-04-01T16:04:18.598Z,11.80
2019-04-01T16:06:48.332Z,8.97
2019-04-01T16:09:37.182Z,7.63
2019-04-01T16:12:06.892Z,6.83
2019-04-01T16:14:36.659Z,5.83
2019-04-01T16:17:06.426Z,6.77
2019-04-01T16:19:36.125Z,6.27
2019-04-01T16:22:05.921Z,6.87
2019-04-01T16:24:35.748Z,6.00
2019-04-01T16:27:05.631Z,6.13
2019-04-01T16:29:35.318Z,9.07
2019-04-01T16:32:05.004Z,7.33
2019-04-01T16:34:34.879Z,9.13
2019-04-01T16:37:04.940Z,9.83
2019-04-01T16:39:34.656Z,8.67
2019-04-01T16:42:04.424Z,7.00
2019-04-01T16:44:34.180Z,7.53
2019-04-01T16:47:03.894Z,10.33
2019-04-01T16:49:33.578Z,7.70
2019-04-01T16:52:03.312Z,12.07
2019-04-01T16:54:33.028Z,10.87
2019-04-01T16:57:02.857Z,8.60
2019-04-01T16:59:32.691Z,10.50
2019-04-01T17:02:02.404Z,11.03
2019-04-01T17:04:32.117Z,10.87
2019-04-01T17:07:01.951Z,11.60
2019-04-01T17:09:31.620Z,11.33
2019-04-01T17:12:01.876Z,18.23
2019-04-01T17:14:31.650Z,17.63
2019-04-01T17:17:01.576Z,16.70
2019-04-01T17:19:31.378Z,20.57
2019-04-01T17:22:01.120Z,24.47
2019-04-01T17:24:30.764Z,14.90
2019-04-01T17:27:04.424Z,14.53
2019-04-01T17:29:34.177Z,14.00
2019-04-01T17:32:03.947Z,15.57
2019-04-01T17:34:33.824Z,14.53
2019-04-01T17:37:03.634Z,10.73
2019-04-01T17:39:34.320Z,15.00
2019-04-01T17:42:04.271Z,11.20
2019-04-01T17:44:34.088Z,13.77
2019-04-01T17:47:03.912Z,12.77
2019-04-01T17:49:33.641Z,9.50
2019-04-01T17:52:04.469Z,21.13
2019-04-01T17:54:34.258Z,12.63
2019-04-01T17:57:04.100Z,8.00
2019-04-01T17:59:33.914Z,10.10
2019-04-01T18:02:03.683Z,12.77
2019-04-01T18:04:33.370Z,8.83
2019-04-01T18:07:03.201Z,9.63
2019-04-01T18:09:32.964Z,8.87
2019-04-01T18:12:02.824Z,8.30
2019-04-01T18:14:32.532Z,7.03
2019-04-01T18:17:02.384Z,7.90
2019-04-01T18:19:32.092Z,4.23
2019-04-01T18:22:02.054Z,7.40
2019-04-01T18:24:31.916Z,9.20
2019-04-01T18:27:01.704Z,5.97
2019-04-01T18:29:31.452Z,7.57
2019-04-01T18:32:02.301Z,5.50
2019-04-01T18:34:32.040Z,7.90
2019-04-01T18:37:01.784Z,6.03
2019-04-01T18:39:31.495Z,9.53
2019-04-01T18:42:02.846Z,8.80
2019-04-01T18:44:32.743Z,7.33
2019-04-01T18:47:04.027Z,11.27
2019-04-01T18:49:33.938Z,12.07
2019-04-01T18:52:04.045Z,13.47
2019-04-01T18:54:34.105Z,6.53
2019-04-01T18:57:04.068Z,12.87
2019-04-01T18:59:33.740Z,5.60
2019-04-01T19:02:03.476Z,13.10
2019-04-01T19:04:34.312Z,9.07
2019-04-01T19:07:04.486Z,11.13
2019-04-01T19:09:34.649Z,8.93
2019-04-01T19:12:06.862Z,9.93
2019-04-01T19:14:36.599Z,8.47
2019-04-01T19:17:07.811Z,8.23
2019-04-01T19:19:40.195Z,8.50
2019-04-01T19:22:08.885Z,5.93
2019-04-01T19:24:38.580Z,9.93
2019-04-01T19:27:08.398Z,10.37
2019-04-01T19:29:38.202Z,7.13
2019-04-01T19:32:09.375Z,10.27
2019-04-01T19:34:39.194Z,7.33
2019-04-01T19:37:08.990Z,7.03
2019-04-01T19:39:38.795Z,10.77
2019-04-01T19:42:08.720Z,14.30
2019-04-01T19:44:38.420Z,6.70
2019-04-01T19:47:08.223Z,8.80
2019-04-01T19:49:38.051Z,8.50
2019-04-01T19:52:09.743Z,8.13
2019-04-01T19:54:39.095Z,10.70
2019-04-01T19:57:09.024Z,5.90
2019-04-01T19:59:38.782Z,10.83
2019-04-01T20:02:09.617Z,10.40
2019-04-01T20:04:58.733Z,14.27
2019-04-01T20:07:28.541Z,10.47
2019-04-01T20:09:58.308Z,10.20
2019-04-01T20:12:29.126Z,8.50
2019-04-01T20:14:59.011Z,7.63
2019-04-01T20:17:28.818Z,7.20
2019-04-01T20:19:58.509Z,7.47
2019-04-01T20:22:28.478Z,5.03
2019-04-01T20:24:58.207Z,7.77
2019-04-01T20:27:27.955Z,7.77
2019-04-01T20:29:57.661Z,4.30
2019-04-01T20:32:28.383Z,5.60
2019-04-01T20:34:59.567Z,4.87
2019-04-01T20:37:29.798Z,7.10
2019-04-01T20:39:59.686Z,5.70
2019-04-01T20:42:29.392Z,5.00
2019-04-01T20:44:59.196Z,5.03
2019-04-01T20:47:28.941Z,6.00
2019-04-01T20:49:59.193Z,5.27
2019-04-01T20:52:29.056Z,5.50
2019-04-01T20:54:58.854Z,3.87
2019-04-01T20:57:28.679Z,3.63
2019-04-01T20:59:58.483Z,4.43
2019-04-01T21:02:28.188Z,4.90
2019-04-01T21:04:57.845Z,5.70
2019-04-01T21:07:27.783Z,4.83
2019-04-01T21:09:57.536Z,4.30
2019-04-01T21:12:27.295Z,4.83
2019-04-01T21:14:57.048Z,5.30
2019-04-01T21:17:26.864Z,4.47
2019-04-01T21:19:56.677Z,4.00
2019-04-01T21:22:26.489Z,4.53
2019-04-01T21:24:56.283Z,5.90
2019-04-01T21:27:26.113Z,3.30
2019-04-01T21:29:55.944Z,4.17
2019-04-01T21:32:25.631Z,5.30
2019-04-01T21:34:55.345Z,3.07
2019-04-01T21:37:26.008Z,3.53
2019-04-01T21:39:55.652Z,5.03
2019-04-01T21:42:25.580Z,2.93
2019-04-01T21:44:55.424Z,6.10
2019-04-01T21:47:25.234Z,4.23
2019-04-01T21:49:54.899Z,2.53
2019-04-01T21:52:24.763Z,6.00
2019-04-01T21:54:54.556Z,5.23
2019-04-01T21:57:24.368Z,3.27
2019-04-01T21:59:54.090Z,3.30
2019-04-01T22:02:35.462Z,3.57
2019-04-01T22:04:55.448Z,3.00
2019-04-01T22:07:25.224Z,3.63
2019-04-01T22:09:54.962Z,5.67
2019-04-01T22:12:24.683Z,4.37
2019-04-01T22:14:54.489Z,3.57
2019-04-01T22:17:24.304Z,4.83
2019-04-01T22:19:53.996Z,3.20
2019-04-01T22:22:23.690Z,2.47
2019-04-01T22:24:53.428Z,2.83
2019-04-01T22:27:24.756Z,2.93
2019-04-01T22:29:54.548Z,3.13
2019-04-01T22:32:24.325Z,3.63
2019-04-01T22:34:54.136Z,3.63
2019-04-01T22:37:27.416Z,3.00
2019-04-01T22:39:55.446Z,2.93
2019-04-01T22:42:27.031Z,2.43
2019-04-01T22:44:56.743Z,2.90
2019-04-01T22:47:26.604Z,3.60
2019-04-01T22:49:56.234Z,2.93
2019-04-01T22:52:26.096Z,3.17
2019-04-01T22:54:55.893Z,2.57
2019-04-01T22:57:25.707Z,3.13
2019-04-01T22:59:55.413Z,2.50
2019-04-01T23:02:25.332Z,3.20
2019-04-01T23:04:55.252Z,2.73
2019-04-01T23:07:25.260Z,2.30
2019-04-01T23:09:55.074Z,2.77
2019-04-01T23:12:24.788Z,2.47
2019-04-01T23:14:54.475Z,3.73
2019-04-01T23:17:24.308Z,2.43
2019-04-01T23:19:54.012Z,3.67
2019-04-01T23:22:23.731Z,3.77
2019-04-01T23:24:53.433Z,2.40
2019-04-01T23:27:24.166Z,2.23
2019-04-01T23:29:54.416Z,2.87
2019-04-01T23:32:24.416Z,2.33
2019-04-01T23:34:54.347Z,3.60
2019-04-01T23:37:24.101Z,2.00
2019-04-01T23:39:53.895Z,4.47
2019-04-01T23:42:23.658Z,2.17
2019-04-01T23:44:53.383Z,3.47
2019-04-01T23:47:23.586Z,2.63
2019-04-01T23:49:53.271Z,1.80
2019-04-01T23:52:23.015Z,2.63
2019-04-01T23:54:52.722Z,3.77
2019-04-01T23:57:22.644Z,2.10
2019-04-01T23:59:52.458Z,2.90
